Time;durP1;ratioP1;P1;durP2;ratioP2;P2;SDS_P1;SDS_P2;PMS_P1;PMS_P2;Temp;Humidity;BMP_temperature;BMP_pressure;BME280_temperature;BME280_humidity;BME280_pressure;Samples;Min_cycle;Max_cycle;Signal;HPM_P1;HPM_P2
2022/03/01 00:02:23;;;;;;;27.33;17.20;;;1.60;77.70;;;;;;6277563;22;20165;-89
2022/03/01 00:04:49;;;;;;;38.00;19.17;;;1.60;77.50;;;;;;6276623;22;20155;-89
2022/03/01 00:07:15;;;;;;;28.93;18.37;;;1.70;77.30;;;;;;6276366;22;20182;-89
2022/03/01 00:09:40;;;;;;;33.20;19.73;;;1.70;76.80;;;;;;6276889;22;20581;-89
2022/03/01 00:12:07;;;;;;;28.47;16.40;;;1.60;76.50;;;;;;6276461;22;20200;-90
2022/03/01 00:14:33;;;;;;;28.73;16.23;;;1.60;76.20;;;;;;6276345;22;20163;-90
2022/03/01 00:16:59;;;;;;;29.63;17.50;;;1.70;76.00;;;;;;6276213;22;20185;-90
2022/03/01 00:19:27;;;;;;;32.97;16.73;;;1.70;75.70;;;;;;6277403;22;20158;-90
2022/03/01 00:21:53;;;;;;;29.30;16.03;;;1.70;75.40;;;;;;6277337;22;20158;-90
2022/03/01 00:24:19;;;;;;;30.43;16.40;;;1.70;75.30;;;;;;6276458;22;20668;-89
2022/03/01 00:26:45;;;;;;;34.90;17.10;;;1.70;75.30;;;;;;6275933;22;20193;-89
2022/03/01 00:29:11;;;;;;;25.70;15.37;;;1.70;75.10;;;;;;6276431;22;20162;-89
2022/03/01 00:31:36;;;;;;;27.47;16.47;;;1.70;74.60;;;;;;6276233;22;20149;-89
2022/03/01 00:34:02;;;;;;;25.70;15.03;;;1.70;74.50;;;;;;6277048;22;20211;-88
2022/03/01 00:36:27;;;;;;;27.20;15.23;;;1.70;74.50;;;;;;6275966;22;20207;-89
2022/03/01 00:38:53;;;;;;;26.40;16.50;;;1.60;74.60;;;;;;6275726;22;20156;-90
2022/03/01 00:41:19;;;;;;;30.37;14.67;;;1.60;74.60;;;;;;6276141;22;20276;-89
2022/03/01 00:43:44;;;;;;;25.10;15.50;;;1.60;74.70;;;;;;6275915;22;20204;-89
2022/03/01 00:46:10;;;;;;;26.53;16.53;;;1.70;74.70;;;;;;6276001;22;20181;-89
2022/03/01 00:48:35;;;;;;;24.33;14.50;;;1.60;74.40;;;;;;6276131;22;20251;-89
2022/03/01 00:51:01;;;;;;;26.00;16.43;;;1.60;74.30;;;;;;6277008;22;20576;-90
2022/03/01 00:53:26;;;;;;;24.70;15.30;;;1.70;74.30;;;;;;6276307;22;20154;-89
2022/03/01 00:55:52;;;;;;;29.43;15.83;;;1.60;74.20;;;;;;6276282;22;20188;-89
2022/03/01 00:58:17;;;;;;;30.30;15.33;;;1.60;74.00;;;;;;6275863;22;20537;-89
2022/03/01 01:00:43;;;;;;;28.80;15.23;;;1.60;74.20;;;;;;6275812;22;20253;-89
2022/03/01 01:03:09;;;;;;;27.93;15.70;;;1.50;74.00;;;;;;6275792;22;20154;-90
2022/03/01 01:05:34;;;;;;;25.53;15.37;;;1.60;73.90;;;;;;6275724;22;20176;-90
2022/03/01 01:08:00;;;;;;;25.63;14.60;;;1.60;73.50;;;;;;6276142;22;20231;-89
2022/03/01 01:10:26;;;;;;;25.43;13.83;;;1.60;73.60;;;;;;6276687;22;20157;-90
2022/03/01 01:12:52;;;;;;;23.67;15.13;;;1.50;73.30;;;;;;6280191;22;20149;-90
2022/03/01 01:15:18;;;;;;;24.10;14.47;;;1.50;73.40;;;;;;6276200;22;20263;-91
2022/03/01 01:17:44;;;;;;;26.37;13.97;;;1.50;73.20;;;;;;6280861;22;20162;-90
2022/03/01 01:20:10;;;;;;;24.73;15.00;;;1.60;73.30;;;;;;6277403;22;20248;-91
2022/03/01 01:22:42;;;;;;;30.63;15.10;;;1.50;72.90;;;;;;6281243;22;20165;-90
2022/03/01 01:25:13;;;;;;;24.33;14.27;;;1.50;73.10;;;;;;6275758;22;20190;-90
2022/03/01 01:27:41;;;;;;;21.93;14.30;;;1.40;73.20;;;;;;6276636;22;20179;-90
2022/03/01 01:30:09;;;;;;;30.87;14.40;;;1.40;73.50;;;;;;6275967;22;20188;-90
2022/03/01 01:32:34;;;;;;;22.60;13.57;;;1.40;73.50;;;;;;6275446;22;20191;-90
2022/03/01 01:35:00;;;;;;;24.90;14.43;;;1.40;73.40;;;;;;6275670;22;20157;-90
2022/03/01 01:37:26;;;;;;;21.57;14.37;;;1.40;73.40;;;;;;6276000;22;20180;-90
2022/03/01 01:39:51;;;;;;;24.13;14.60;;;1.40;73.30;;;;;;6276651;22;20158;-90
2022/03/01 01:42:17;;;;;;;21.67;13.50;;;1.40;73.20;;;;;;6275977;22;20158;-91
2022/03/01 01:44:43;;;;;;;23.40;13.10;;;1.30;73.20;;;;;;6275830;22;20253;-90
2022/03/01 01:47:09;;;;;;;19.17;12.43;;;1.30;73.40;;;;;;6275730;22;20188;-90
2022/03/01 01:49:35;;;;;;;25.53;13.67;;;1.30;73.30;;;;;;6275455;22;20612;-90
2022/03/01 01:52:01;;;;;;;22.77;13.13;;;1.30;73.20;;;;;;6275081;22;20679;-90
2022/03/01 01:54:28;;;;;;;25.57;13.73;;;1.30;72.90;;;;;;6275460;22;20157;-90
2022/03/01 01:56:53;;;;;;;22.33;13.07;;;1.30;73.00;;;;;;6276312;22;20199;-90
2022/03/01 01:59:19;;;;;;;23.93;13.20;;;1.30;72.80;;;;;;6275364;22;20155;-90
2022/03/01 02:01:45;;;;;;;20.60;13.40;;;1.30;72.70;;;;;;6275394;22;20236;-90
2022/03/01 02:04:11;;;;;;;23.80;13.83;;;1.20;72.80;;;;;;6275374;22;20155;-90
2022/03/01 02:06:55;;;;;;;25.00;12.73;;;1.20;72.90;;;;;;6275184;22;20192;-90
2022/03/01 02:09:21;;;;;;;19.93;12.50;;;1.30;73.00;;;;;;6275379;22;20157;-90
2022/03/01 02:11:46;;;;;;;24.57;12.70;;;1.20;73.00;;;;;;6275680;22;20150;-90
2022/03/01 02:14:13;;;;;;;24.30;13.23;;;1.20;73.00;;;;;;6275832;22;20159;-90
2022/03/01 02:16:40;;;;;;;21.50;12.70;;;1.10;73.20;;;;;;6275145;22;20177;-92
2022/03/01 02:19:10;;;;;;;24.00;12.07;;;1.10;73.20;;;;;;6275206;22;20159;-92
2022/03/01 02:21:36;;;;;;;19.53;12.20;;;1.10;73.30;;;;;;6275234;22;20162;-92
2022/03/01 02:24:01;;;;;;;22.83;12.70;;;1.10;73.10;;;;;;6276271;22;20165;-92
2022/03/01 02:26:27;;;;;;;21.93;13.10;;;1.10;73.30;;;;;;6274945;22;20192;-92
2022/03/01 02:28:53;;;;;;;21.20;12.23;;;1.10;73.10;;;;;;6275780;22;20589;-92
2022/03/01 02:31:18;;;;;;;22.30;13.00;;;1.10;72.70;;;;;;6275128;22;20154;-92
2022/03/01 02:33:44;;;;;;;20.37;12.23;;;1.20;72.80;;;;;;6275210;22;20196;-91
2022/03/01 02:36:10;;;;;;;20.03;11.33;;;1.20;72.50;;;;;;6275078;22;20174;-91
2022/03/01 02:38:35;;;;;;;20.53;12.50;;;1.10;72.30;;;;;;6275350;22;20206;-91
2022/03/01 02:41:01;;;;;;;20.10;12.33;;;1.10;72.50;;;;;;6275585;22;20241;-92
2022/03/01 02:43:26;;;;;;;23.83;12.73;;;1.10;72.60;;;;;;6274948;22;20617;-91
2022/03/01 02:45:52;;;;;;;27.57;12.03;;;1.10;72.50;;;;;;6275109;22;20564;-91
2022/03/01 02:48:18;;;;;;;19.37;12.30;;;1.10;72.50;;;;;;6274949;22;20182;-91
2022/03/01 02:50:43;;;;;;;22.07;12.57;;;1.00;73.60;;;;;;6275512;22;20487;-91
2022/03/01 02:53:09;;;;;;;19.37;12.50;;;1.00;74.30;;;;;;6275068;22;20620;-91
2022/03/01 02:55:34;;;;;;;18.80;11.80;;;1.00;74.50;;;;;;6275178;22;20256;-91
2022/03/01 02:58:00;;;;;;;22.70;12.30;;;0.90;74.50;;;;;;6275150;22;20199;-92
2022/03/01 03:00:25;;;;;;;22.40;12.20;;;0.90;74.60;;;;;;6275115;22;20598;-91
2022/03/01 03:02:51;;;;;;;25.23;12.50;;;0.80;74.80;;;;;;6276194;22;20156;-92
2022/03/01 03:05:17;;;;;;;22.80;12.27;;;0.90;74.70;;;;;;6276866;22;20763;-91
2022/03/01 03:07:43;;;;;;;19.03;11.93;;;0.90;74.50;;;;;;6276830;22;20192;-92
2022/03/01 03:10:09;;;;;;;21.63;12.20;;;0.80;74.50;;;;;;6276992;22;20203;-91
2022/03/01 03:12:34;;;;;;;18.60;11.20;;;0.80;74.50;;;;;;6276906;22;20154;-91
2022/03/01 03:15:00;;;;;;;24.57;12.20;;;0.70;75.10;;;;;;6276843;22;20590;-91
2022/03/01 03:17:29;;;;;;;19.67;11.83;;;0.70;75.90;;;;;;6276732;22;20160;-91
2022/03/01 03:19:54;;;;;;;23.00;13.00;;;0.60;76.70;;;;;;6276812;22;20233;-91
2022/03/01 03:22:20;;;;;;;19.13;11.60;;;0.60;76.50;;;;;;6277135;22;20228;-91
2022/03/01 03:24:45;;;;;;;22.90;12.60;;;0.50;76.40;;;;;;6276787;22;20158;-91
2022/03/01 03:27:11;;;;;;;26.40;13.20;;;0.50;76.30;;;;;;6277205;22;20195;-92
2022/03/01 03:29:37;;;;;;;22.17;12.87;;;0.50;75.90;;;;;;6277216;22;20163;-92
2022/03/01 03:32:03;;;;;;;23.37;12.87;;;0.50;75.90;;;;;;6277527;22;20206;-92
2022/03/01 03:34:29;;;;;;;19.97;11.80;;;0.50;75.70;;;;;;6277035;22;20154;-91
2022/03/01 03:36:55;;;;;;;19.77;11.97;;;0.50;75.50;;;;;;6276778;22;20522;-91
2022/03/01 03:39:21;;;;;;;17.73;11.33;;;0.60;75.20;;;;;;6277440;22;20162;-92
2022/03/01 03:41:47;;;;;;;24.53;11.93;;;0.50;74.80;;;;;;6276695;22;20161;-91
2022/03/01 03:44:12;;;;;;;21.57;12.10;;;0.50;74.70;;;;;;6276767;22;20198;-92
2022/03/01 03:46:38;;;;;;;19.13;11.40;;;0.50;74.80;;;;;;6276905;22;20522;-91
2022/03/01 03:49:04;;;;;;;20.23;11.87;;;0.40;75.70;;;;;;6276586;22;20501;-91
2022/03/01 03:51:30;;;;;;;20.77;11.90;;;0.40;76.20;;;;;;6277191;22;20159;-91
2022/03/01 03:53:55;;;;;;;21.67;12.47;;;0.40;76.30;;;;;;6276925;22;20156;-92
2022/03/01 03:56:22;;;;;;;20.77;12.93;;;0.40;75.90;;;;;;6276945;22;20184;-91
2022/03/01 03:58:47;;;;;;;23.80;12.53;;;0.40;75.50;;;;;;6277367;22;20152;-91
2022/03/01 04:01:13;;;;;;;20.40;11.83;;;0.40;75.50;;;;;;6276798;22;20157;-91
2022/03/01 04:03:42;;;;;;;21.33;12.40;;;0.40;74.90;;;;;;6278245;22;20506;-92
2022/03/01 04:06:07;;;;;;;23.27;12.07;;;0.40;75.00;;;;;;6276942;22;20200;-91
2022/03/01 04:08:39;;;;;;;19.20;12.07;;;0.40;74.90;;;;;;6276973;22;20178;-91
2022/03/01 04:11:05;;;;;;;20.07;11.33;;;0.40;74.90;;;;;;6276641;22;20153;-91
2022/03/01 04:13:31;;;;;;;19.90;10.90;;;0.30;75.00;;;;;;6278524;22;20196;-92
2022/03/01 04:15:57;;;;;;;25.60;13.47;;;0.30;75.00;;;;;;6278917;22;20179;-91
2022/03/01 04:18:22;;;;;;;19.73;12.30;;;0.30;75.20;;;;;;6277133;22;20474;-91
2022/03/01 04:20:50;;;;;;;21.63;12.37;;;0.30;75.10;;;;;;6276526;22;20236;-92
2022/03/01 04:23:18;;;;;;;21.37;12.47;;;0.30;75.20;;;;;;6276886;22;20612;-91
2022/03/01 04:25:47;;;;;;;18.53;11.37;;;0.30;75.40;;;;;;6276611;22;20196;-91
2022/03/01 04:28:13;;;;;;;23.07;12.60;;;0.30;75.30;;;;;;6276532;22;20187;-91
2022/03/01 04:30:38;;;;;;;21.93;13.03;;;0.30;75.20;;;;;;6276639;22;20597;-91
2022/03/01 04:33:04;;;;;;;21.93;12.33;;;0.30;75.30;;;;;;6276439;22;20152;-91
2022/03/01 04:35:30;;;;;;;21.63;12.63;;;0.20;75.30;;;;;;6276379;22;20170;-91
2022/03/01 04:37:56;;;;;;;21.13;12.90;;;0.20;75.30;;;;;;6277203;22;20160;-91
2022/03/01 04:40:22;;;;;;;25.93;12.47;;;0.20;75.40;;;;;;6276520;22;20533;-91
2022/03/01 04:42:49;;;;;;;20.47;12.93;;;0.10;75.50;;;;;;6276204;22;20609;-91
2022/03/01 04:45:16;;;;;;;23.53;12.83;;;0.10;75.90;;;;;;6276413;22;20175;-91
2022/03/01 04:47:44;;;;;;;19.83;11.90;;;0.10;76.00;;;;;;6277067;22;20188;-91
2022/03/01 04:50:18;;;;;;;21.03;12.00;;;0.00;76.50;;;;;;6276793;22;20147;-91
2022/03/01 04:52:44;;;;;;;22.00;13.40;;;0.00;76.70;;;;;;6276791;22;20575;-91
2022/03/01 04:55:12;;;;;;;24.57;12.27;;;0.00;76.80;;;;;;6276018;22;20229;-91
2022/03/01 04:57:38;;;;;;;23.27;12.67;;;0.00;77.00;;;;;;6276204;22;20244;-91
2022/03/01 05:00:10;;;;;;;24.43;13.77;;;0.00;76.80;;;;;;6276090;22;20153;-91
2022/03/01 05:02:45;;;;;;;22.87;13.07;;;0.00;76.60;;;;;;6275869;22;20164;-92
2022/03/01 05:05:12;;;;;;;23.07;13.50;;;0.00;76.70;;;;;;6276598;22;20616;-91
2022/03/01 05:07:47;;;;;;;22.93;12.53;;;0.00;76.80;;;;;;6276823;22;20185;-91
2022/03/01 05:10:20;;;;;;;23.03;13.23;;;0.00;76.70;;;;;;6276346;22;20155;-91
2022/03/01 05:12:57;;;;;;;22.43;12.70;;;0.00;76.60;;;;;;6276924;22;20524;-91
2022/03/01 05:15:26;;;;;;;23.40;12.90;;;0.00;76.70;;;;;;6276545;22;20171;-91
2022/03/01 05:17:52;;;;;;;23.73;12.80;;;0.00;76.60;;;;;;6276277;22;20194;-91
2022/03/01 05:20:31;;;;;;;23.07;13.37;;;0.00;76.90;;;;;;6276370;22;20155;-92
2022/03/01 05:22:57;;;;;;;21.37;11.93;;;0.00;77.00;;;;;;6275993;22;20147;-91
2022/03/01 05:25:27;;;;;;;21.93;14.20;;;-0.10;76.90;;;;;;6275989;22;20189;-91
2022/03/01 05:27:53;;;;;;;22.17;12.67;;;-0.10;77.00;;;;;;6276764;22;20191;-91
2022/03/01 05:30:26;;;;;;;21.63;12.17;;;0.00;77.00;;;;;;6275551;22;20156;-91
2022/03/01 05:32:55;;;;;;;20.20;12.73;;;-0.10;77.00;;;;;;6274787;22;20150;-91
2022/03/01 05:35:23;;;;;;;26.00;13.73;;;-0.10;77.30;;;;;;6276109;22;20181;-91
2022/03/01 05:37:56;;;;;;;22.57;12.83;;;-0.10;77.20;;;;;;6276690;22;20157;-90
2022/03/01 05:40:35;;;;;;;27.70;13.63;;;-0.20;77.00;;;;;;6276808;22;20144;-91
2022/03/01 05:43:05;;;;;;;25.37;14.63;;;-0.10;77.10;;;;;;6277092;22;20149;-90
2022/03/01 05:45:34;;;;;;;24.93;13.93;;;-0.20;77.10;;;;;;6275598;22;20179;-91
2022/03/01 05:48:02;;;;;;;22.27;12.97;;;-0.20;77.20;;;;;;6276682;22;20186;-91
2022/03/01 05:50:28;;;;;;;26.87;14.10;;;-0.10;77.30;;;;;;6275695;22;20178;-91
2022/03/01 05:52:56;;;;;;;23.77;13.13;;;-0.10;77.20;;;;;;6275631;22;20158;-91
2022/03/01 05:55:24;;;;;;;25.53;13.90;;;-0.20;77.50;;;;;;6276047;22;20264;-91
2022/03/01 05:57:50;;;;;;;22.90;13.40;;;-0.10;77.50;;;;;;6276162;22;20152;-91
2022/03/01 06:00:25;;;;;;;31.30;14.60;;;-0.10;77.50;;;;;;6276762;22;20167;-91
2022/03/01 06:02:54;;;;;;;25.23;13.43;;;-0.20;77.90;;;;;;6275703;22;20576;-91
2022/03/01 06:05:20;;;;;;;24.27;12.57;;;-0.20;78.10;;;;;;6275836;22;20697;-90
2022/03/01 06:07:51;;;;;;;22.43;13.83;;;-0.30;78.10;;;;;;6274751;22;20204;-91
2022/03/01 06:10:20;;;;;;;24.70;14.00;;;-0.30;78.30;;;;;;6276172;22;20143;-91
2022/03/01 06:12:48;;;;;;;26.30;14.77;;;-0.20;78.60;;;;;;6275548;22;20161;-91
2022/03/01 06:15:14;;;;;;;23.13;12.63;;;-0.20;78.40;;;;;;6276135;22;20176;-90
2022/03/01 06:17:46;;;;;;;23.63;13.43;;;-0.30;78.40;;;;;;6276414;22;20498;-90
2022/03/01 06:20:25;;;;;;;25.47;14.27;;;-0.30;78.70;;;;;;6277357;22;20230;-91
2022/03/01 06:22:50;;;;;;;24.80;13.37;;;-0.40;78.50;;;;;;6275602;22;20223;-91
2022/03/01 06:25:21;;;;;;;27.53;14.57;;;-0.30;78.60;;;;;;6275646;22;20198;-90
2022/03/01 06:27:51;;;;;;;23.20;13.43;;;-0.30;78.70;;;;;;6275788;22;20190;-90
2022/03/01 06:30:23;;;;;;;24.70;13.23;;;-0.30;78.50;;;;;;6275882;22;20154;-90
2022/03/01 06:32:51;;;;;;;27.83;14.30;;;-0.20;78.50;;;;;;6276352;22;20171;-90
2022/03/01 06:35:17;;;;;;;25.47;12.70;;;-0.20;78.50;;;;;;6275846;22;20171;-91
2022/03/01 06:37:45;;;;;;;27.20;14.07;;;-0.10;78.70;;;;;;6277477;22;20453;-90
2022/03/01 06:40:12;;;;;;;23.77;13.53;;;-0.10;78.70;;;;;;6277888;22;20152;-90
2022/03/01 06:42:41;;;;;;;27.17;13.33;;;-0.20;78.40;;;;;;6277465;22;20152;-90
2022/03/01 06:45:12;;;;;;;28.83;13.87;;;-0.20;78.40;;;;;;6277802;22;20179;-91
2022/03/01 06:47:42;;;;;;;25.80;14.57;;;-0.20;78.70;;;;;;6277322;22;20182;-91
2022/03/01 06:50:20;;;;;;;24.03;13.30;;;-0.10;78.70;;;;;;6277482;22;20193;-90
2022/03/01 06:52:49;;;;;;;26.53;14.13;;;0.00;78.90;;;;;;6277895;22;20151;-91
2022/03/01 06:55:21;;;;;;;25.30;14.73;;;0.00;79.10;;;;;;6277853;22;20178;-90
2022/03/01 06:57:56;;;;;;;21.90;12.83;;;0.00;79.00;;;;;;6277351;22;20162;-90
2022/03/01 07:00:22;;;;;;;25.50;14.33;;;-0.10;78.30;;;;;;6277702;22;20177;-90
2022/03/01 07:02:51;;;;;;;23.70;13.80;;;-0.10;78.30;;;;;;6277734;22;20154;-91
2022/03/01 07:05:20;;;;;;;23.80;12.67;;;0.00;78.00;;;;;;6277105;22;20177;-90
2022/03/01 07:07:46;;;;;;;26.73;13.27;;;0.00;78.00;;;;;;6277428;22;20179;-90
2022/03/01 07:10:21;;;;;;;25.33;12.67;;;0.00;77.80;;;;;;6277468;22;20164;-91
2022/03/01 07:12:53;;;;;;;27.30;14.13;;;0.00;77.60;;;;;;6278379;22;20618;-91
2022/03/01 07:15:19;;;;;;;23.07;13.43;;;0.00;77.80;;;;;;6277158;22;20203;-90
2022/03/01 07:17:46;;;;;;;24.07;13.93;;;0.00;77.50;;;;;;6278196;22;20164;-90
2022/03/01 07:20:12;;;;;;;25.90;13.77;;;0.10;77.50;;;;;;6277579;22;20160;-91
2022/03/01 07:22:38;;;;;;;25.67;14.53;;;0.10;77.60;;;;;;6278051;22;20187;-92
2022/03/01 07:25:07;;;;;;;30.10;14.40;;;0.10;77.60;;;;;;6276998;22;20186;-90
2022/03/01 07:27:33;;;;;;;23.33;14.10;;;0.20;77.50;;;;;;6276559;22;20194;-91
2022/03/01 07:29:59;;;;;;;26.03;14.27;;;0.20;77.50;;;;;;6277215;22;20262;-91
2022/03/01 07:32:25;;;;;;;26.63;14.13;;;0.30;77.40;;;;;;6276956;22;20152;-90
2022/03/01 07:34:51;;;;;;;22.13;14.27;;;0.30;77.40;;;;;;6277000;22;20158;-91
2022/03/01 07:37:17;;;;;;;26.03;14.77;;;0.40;77.10;;;;;;6277309;22;20159;-90
2022/03/01 07:39:48;;;;;;;25.30;14.13;;;0.40;77.20;;;;;;6276661;22;20162;-90
2022/03/01 07:42:13;;;;;;;25.80;13.20;;;0.50;77.20;;;;;;6277910;22;20149;-88
2022/03/01 07:44:39;;;;;;;25.33;15.07;;;0.60;77.20;;;;;;6279655;22;20155;-91
2022/03/01 07:47:08;;;;;;;27.50;13.73;;;0.60;77.50;;;;;;6279044;22;20194;-90
2022/03/01 07:49:34;;;;;;;29.37;14.10;;;0.70;77.00;;;;;;6277084;22;20167;-90
2022/03/01 07:52:00;;;;;;;28.23;14.90;;;0.70;77.10;;;;;;6277012;22;20154;-91
2022/03/01 07:54:29;;;;;;;26.13;13.90;;;0.80;76.90;;;;;;6277256;22;20154;-91
2022/03/01 07:56:58;;;;;;;24.13;13.77;;;0.90;76.70;;;;;;6277101;22;20177;-91
2022/03/01 07:59:23;;;;;;;24.40;14.17;;;0.90;76.00;;;;;;6277501;22;20181;-91
2022/03/01 08:01:49;;;;;;;26.53;14.87;;;0.90;75.50;;;;;;6277206;22;20194;-91
2022/03/01 08:04:14;;;;;;;26.77;14.60;;;1.00;75.90;;;;;;6277307;22;20293;-91
2022/03/01 08:06:40;;;;;;;28.73;15.83;;;1.10;76.30;;;;;;6278134;22;20184;-91
2022/03/01 08:09:22;;;;;;;21.63;12.37;;;1.20;75.10;;;;;;6277637;22;20165;-90
2022/03/01 08:11:48;;;;;;;27.50;13.63;;;1.30;74.80;;;;;;6277220;22;20144;-90
2022/03/01 08:14:13;;;;;;;28.20;14.27;;;1.30;74.50;;;;;;6276276;22;20183;-90
2022/03/01 08:16:42;;;;;;;24.87;15.03;;;1.30;75.00;;;;;;6276260;22;20171;-90
2022/03/01 08:19:10;;;;;;;22.83;13.57;;;1.30;74.30;;;;;;6276737;22;20152;-91
2022/03/01 08:21:36;;;;;;;23.97;13.70;;;1.40;74.50;;;;;;6276322;22;20154;-91
2022/03/01 08:24:01;;;;;;;24.10;13.33;;;1.40;74.80;;;;;;6276543;22;20533;-90
2022/03/01 08:26:38;;;;;;;23.97;13.63;;;1.40;75.00;;;;;;6276362;22;20201;-92
2022/03/01 08:29:13;;;;;;;27.37;15.07;;;1.40;75.50;;;;;;6276576;22;20177;-91
2022/03/01 08:31:54;;;;;;;26.97;14.77;;;1.30;75.60;;;;;;6277394;22;20149;-91
2022/03/01 08:34:19;;;;;;;25.37;15.33;;;1.30;75.00;;;;;;6277801;22;20658;-91
2022/03/01 08:36:45;;;;;;;26.23;13.90;;;1.40;75.60;;;;;;6276681;22;20208;-91
2022/03/01 08:39:11;;;;;;;27.17;14.83;;;1.30;75.20;;;;;;6276185;22;20151;-91
2022/03/01 08:41:36;;;;;;;24.73;14.07;;;1.40;75.50;;;;;;6276445;22;20647;-91
2022/03/01 08:44:05;;;;;;;24.60;13.73;;;1.60;75.50;;;;;;6276774;22;20199;-91
2022/03/01 08:46:31;;;;;;;29.23;13.80;;;1.60;75.40;;;;;;6276363;22;20183;-91
2022/03/01 08:48:57;;;;;;;26.60;13.90;;;1.60;75.10;;;;;;6276396;22;20493;-91
2022/03/01 08:51:23;;;;;;;26.67;14.47;;;1.70;75.50;;;;;;6277294;22;20706;-91
2022/03/01 08:53:50;;;;;;;25.87;13.33;;;1.80;74.90;;;;;;6277262;22;20163;-91
2022/03/01 08:56:16;;;;;;;24.33;14.90;;;1.90;75.30;;;;;;6277648;22;20163;-91
2022/03/01 08:58:43;;;;;;;25.60;15.07;;;1.90;75.00;;;;;;6277812;22;20152;-91
2022/03/01 09:01:08;;;;;;;24.27;15.13;;;2.00;75.00;;;;;;6277057;22;20246;-92
2022/03/01 09:03:35;;;;;;;27.93;15.03;;;2.10;74.70;;;;;;6277035;22;20664;-91
2022/03/01 09:06:05;;;;;;;26.20;15.13;;;2.20;75.10;;;;;;6276028;22;20185;-91
2022/03/01 09:08:33;;;;;;;27.67;14.30;;;2.20;75.00;;;;;;6276154;22;20176;-91
2022/03/01 09:10:58;;;;;;;25.13;14.63;;;2.40;74.80;;;;;;6276099;22;20154;-91
2022/03/01 09:13:27;;;;;;;28.13;15.33;;;2.50;74.10;;;;;;6276114;22;20165;-91
2022/03/01 09:16:00;;;;;;;25.37;13.57;;;2.70;73.60;;;;;;6275931;22;20175;-91
2022/03/01 09:18:34;;;;;;;22.87;15.03;;;2.80;73.50;;;;;;6276947;22;20189;-91
2022/03/01 09:21:06;;;;;;;25.13;14.57;;;2.90;72.30;;;;;;6277561;22;20169;-91
2022/03/01 09:23:34;;;;;;;22.70;11.67;;;3.00;71.10;;;;;;6275959;22;20498;-92
2022/03/01 09:26:06;;;;;;;24.70;14.93;;;3.10;70.90;;;;;;6276152;22;20215;-92
2022/03/01 09:28:32;;;;;;;26.60;14.80;;;3.20;70.10;;;;;;6275790;22;20185;-91
2022/03/01 09:30:58;;;;;;;24.03;15.23;;;3.40;70.70;;;;;;6276317;22;20153;-91
2022/03/01 09:33:23;;;;;;;22.80;14.83;;;3.50;70.70;;;;;;6277483;22;20157;-92
2022/03/01 09:35:55;;;;;;;27.27;14.33;;;3.60;69.90;;;;;;6276245;22;20175;-92
2022/03/01 09:38:21;;;;;;;24.77;14.67;;;3.50;70.00;;;;;;6277585;22;20150;-92
2022/03/01 09:45:57;;;;;;;24.37;15.40;;;3.70;68.30;;;;;;6351498;22;20197;-92
2022/03/01 09:51:12;;;;;;;24.40;15.17;;;4.20;69.40;;;;;;6339632;22;20209;-92
2022/03/01 09:53:41;;;;;;;23.20;14.27;;;4.30;67.70;;;;;;6314125;22;20164;-92
2022/03/01 09:56:07;;;;;;;28.60;16.17;;;4.30;68.00;;;;;;6312627;22;20264;-92
2022/03/01 09:58:36;;;;;;;30.37;15.47;;;4.50;68.50;;;;;;6313225;22;20615;-92
2022/03/01 10:01:11;;;;;;;26.27;16.10;;;4.30;67.60;;;;;;6311997;22;20157;-92
2022/03/01 10:06:13;;;;;;;33.10;15.70;;;4.20;67.90;;;;;;6318389;22;20193;-88
2022/03/01 10:08:40;;;;;;;33.00;16.53;;;4.20;68.70;;;;;;6327899;22;20169;-90
2022/03/01 10:11:06;;;;;;;31.03;17.93;;;4.20;68.00;;;;;;6311323;22;20153;-91
2022/03/01 10:13:36;;;;;;;30.93;18.10;;;4.30;68.50;;;;;;6297009;22;20215;-92
2022/03/01 10:16:10;;;;;;;32.40;18.87;;;4.30;68.90;;;;;;6281029;22;20209;-92
2022/03/01 10:18:51;;;;;;;41.37;22.50;;;4.30;68.90;;;;;;6280301;22;20171;-93
2022/03/01 10:21:22;;;;;;;27.40;17.27;;;4.50;67.50;;;;;;6281831;22;20158;-91
2022/03/01 10:24:09;;;;;;;34.40;17.00;;;4.80;68.60;;;;;;6280519;22;20156;-91
2022/03/01 10:26:39;;;;;;;30.90;17.10;;;4.90;68.00;;;;;;6281672;22;20249;-92
2022/03/01 10:29:06;;;;;;;24.10;15.83;;;5.00;67.10;;;;;;6281812;22;20159;-92
2022/03/01 10:31:36;;;;;;;30.03;17.03;;;5.00;68.00;;;;;;6293955;22;20229;-91
2022/03/01 10:34:09;;;;;;;26.70;16.10;;;5.20;68.70;;;;;;6285890;22;20149;-91
2022/03/01 10:37:22;;;;;;;32.10;17.27;;;5.30;67.20;;;;;;6280725;22;20175;-93
2022/03/01 11:08:20;;;;;;;25.73;15.83;;;5.90;65.50;;;;;;6350705;22;20183;-94
2022/03/01 11:10:48;;;;;;;23.97;14.70;;;5.90;65.80;;;;;;6346897;22;20204;-91
2022/03/01 11:19:09;;;;;;;24.53;13.43;;;6.00;66.60;;;;;;6339708;22;20253;-90
2022/03/01 11:21:40;;;;;;;28.00;16.43;;;5.90;65.40;;;;;;6349589;22;20210;-90
2022/03/01 11:24:06;;;;;;;23.73;14.47;;;5.90;67.20;;;;;;6313648;22;20575;-90
2022/03/01 11:26:40;;;;;;;24.40;15.37;;;5.90;66.60;;;;;;6313659;22;20179;-90
2022/03/01 11:29:16;;;;;;;29.50;15.97;;;5.90;65.70;;;;;;6314265;22;20251;-90
2022/03/01 11:32:26;;;;;;;23.13;15.33;;;5.90;66.90;;;;;;6313283;22;20501;-90
2022/03/01 11:35:02;;;;;;;28.57;16.17;;;5.90;66.00;;;;;;6313325;22;20152;-90
2022/03/01 11:37:27;;;;;;;25.47;16.40;;;5.80;66.50;;;;;;6312994;22;20158;-91
2022/03/01 11:39:58;;;;;;;23.80;14.80;;;5.90;66.50;;;;;;6313089;22;20196;-90
2022/03/01 11:45:15;;;;;;;25.63;15.03;;;6.00;65.50;;;;;;6312787;22;20253;-91
2022/03/01 11:47:41;;;;;;;27.77;16.03;;;6.00;65.40;;;;;;6291512;22;20202;-91
2022/03/01 11:50:23;;;;;;;25.83;16.30;;;6.00;65.90;;;;;;6296744;22;20161;-93
2022/03/01 11:58:00;;;;;;;22.27;14.50;;;6.00;65.70;;;;;;6350161;22;20196;-90
2022/03/01 12:00:37;;;;;;;23.97;14.73;;;6.00;66.10;;;;;;6341081;22;20166;-91
2022/03/01 12:03:16;;;;;;;23.63;16.17;;;6.00;65.40;;;;;;6342784;22;20144;-91
2022/03/01 12:05:47;;;;;;;25.53;15.93;;;6.10;66.30;;;;;;6333493;22;20512;-92
2022/03/01 12:11:13;;;;;;;25.67;14.30;;;6.00;66.40;;;;;;6314785;22;20180;-91
2022/03/01 12:16:34;;;;;;;25.00;16.93;;;6.00;65.60;;;;;;6340822;22;20203;-92
2022/03/01 12:19:11;;;;;;;22.97;16.10;;;6.10;65.60;;;;;;6328451;22;20230;-92
2022/03/01 12:21:50;;;;;;;26.37;16.90;;;6.10;66.00;;;;;;6326359;22;20156;-93
2022/03/01 12:24:24;;;;;;;29.40;16.37;;;6.20;66.80;;;;;;6337729;22;20152;-92
2022/03/01 12:27:00;;;;;;;25.53;15.63;;;6.30;65.40;;;;;;6326001;22;20261;-93
2022/03/01 12:29:36;;;;;;;25.07;16.10;;;6.30;66.60;;;;;;6320675;22;20225;-93
2022/03/01 12:32:17;;;;;;;25.50;15.53;;;6.30;66.30;;;;;;6319515;22;20151;-93
2022/03/01 12:34:46;;;;;;;23.67;15.50;;;6.30;65.70;;;;;;6321179;22;20138;-93
2022/03/01 12:37:18;;;;;;;26.30;16.53;;;6.50;66.20;;;;;;6320291;22;20169;-93
2022/03/01 12:39:47;;;;;;;23.17;14.87;;;6.40;65.70;;;;;;6318844;22;20157;-92
2022/03/01 12:42:27;;;;;;;22.70;14.73;;;6.50;66.50;;;;;;6322955;22;20150;-92
2022/03/01 12:44:54;;;;;;;25.67;16.40;;;6.60;66.60;;;;;;6313893;22;20163;-93
2022/03/01 12:47:25;;;;;;;31.30;16.97;;;6.50;65.60;;;;;;6321442;22;20180;-93
2022/03/01 12:49:51;;;;;;;27.63;16.77;;;6.70;66.80;;;;;;6323204;22;20198;-93
2022/03/01 12:52:24;;;;;;;24.50;16.47;;;6.70;65.80;;;;;;6323321;22;20479;-93
2022/03/01 12:55:03;;;;;;;25.30;18.17;;;6.70;65.60;;;;;;6324026;22;20149;-93
2022/03/01 12:57:36;;;;;;;26.47;17.67;;;6.80;65.90;;;;;;6322033;22;20554;-93
2022/03/01 13:00:17;;;;;;;31.03;17.17;;;6.90;65.20;;;;;;6323091;22;20157;-93
2022/03/01 13:03:09;;;;;;;23.73;15.67;;;7.00;63.80;;;;;;6319453;22;20160;-94
2022/03/01 13:05:35;;;;;;;27.17;15.50;;;7.00;63.70;;;;;;6317158;22;20173;-92
2022/03/01 13:08:15;;;;;;;27.83;16.27;;;7.10;63.70;;;;;;6319484;22;20180;-93
2022/03/01 13:10:40;;;;;;;25.43;14.90;;;7.00;65.10;;;;;;6321371;22;20165;-93
2022/03/01 13:13:07;;;;;;;24.63;15.53;;;7.00;65.00;;;;;;6321636;22;20150;-93
2022/03/01 13:15:45;;;;;;;26.63;16.57;;;7.10;64.40;;;;;;6321577;22;20165;-93
2022/03/01 13:18:11;;;;;;;30.57;17.00;;;7.00;64.90;;;;;;6315845;22;20197;-90
2022/03/01 13:20:37;;;;;;;25.37;15.90;;;6.90;65.20;;;;;;6313297;22;20620;-90
2022/03/01 13:23:05;;;;;;;24.03;16.13;;;7.00;65.20;;;;;;6341040;22;20228;-90
2022/03/01 13:25:35;;;;;;;24.47;16.77;;;7.10;64.60;;;;;;6340472;22;20241;-89
2022/03/01 13:28:02;;;;;;;26.00;16.03;;;7.30;64.50;;;;;;6312749;22;20200;-89
2022/03/01 13:30:28;;;;;;;27.83;16.30;;;7.30;64.00;;;;;;6312960;22;20160;-90
2022/03/01 13:33:12;;;;;;;24.53;15.60;;;7.50;63.30;;;;;;6340569;22;20538;-88
2022/03/01 13:35:40;;;;;;;29.00;16.40;;;7.60;63.20;;;;;;6313242;22;20176;-89
2022/03/01 13:38:08;;;;;;;25.93;15.77;;;7.60;63.70;;;;;;6340474;22;20145;-89
2022/03/01 13:40:36;;;;;;;23.27;16.23;;;7.70;64.00;;;;;;6340925;22;20150;-90
2022/03/01 13:43:09;;;;;;;25.73;15.47;;;7.70;63.60;;;;;;6340487;22;20146;-90